sensor_id;sensor_type;location;lat;lon;timestamp;P1;durP1;ratioP1;P2;durP2;ratioP2
69594;SDS011;56800;52.142;5.364;2023-04-25T00:01:18;17.30;;;2.97;;
69594;SDS011;56800;52.142;5.364;2023-04-25T00:03:46;18.77;;;3.20;;
69594;SDS011;56800;52.142;5.364;2023-04-25T00:06:13;22.33;;;3.15;;
69594;SDS011;56800;52.142;5.364;2023-04-25T00:08:40;25.63;;;3.70;;
69594;SDS011;56800;52.142;5.364;2023-04-25T00:11:07;19.40;;;2.92;;
69594;SDS011;56800;52.142;5.364;2023-04-25T00:13:34;23.00;;;3.27;;
69594;SDS011;56800;52.142;5.364;2023-04-25T00:16:00;17.77;;;3.28;;
69594;SDS011;56800;52.142;5.364;2023-04-25T00:18:29;19.35;;;3.10;;
69594;SDS011;56800;52.142;5.364;2023-04-25T00:20:55;24.13;;;3.42;;
69594;SDS011;56800;52.142;5.364;2023-04-25T00:23:22;16.02;;;3.50;;
69594;SDS011;56800;52.142;5.364;2023-04-25T00:25:50;16.93;;;3.53;;
69594;SDS011;56800;52.142;5.364;2023-04-25T00:28:17;22.60;;;3.20;;
69594;SDS011;56800;52.142;5.364;2023-04-25T00:30:43;19.15;;;3.45;;
69594;SDS011;56800;52.142;5.364;2023-04-25T00:33:10;13.02;;;3.10;;
69594;SDS011;56800;52.142;5.364;2023-04-25T00:35:37;17.05;;;3.08;;
69594;SDS011;56800;52.142;5.364;2023-04-25T00:38:04;20.67;;;3.13;;
69594;SDS011;56800;52.142;5.364;2023-04-25T00:40:31;11.63;;;3.00;;
69594;SDS011;56800;52.142;5.364;2023-04-25T00:42:58;23.70;;;4.10;;
69594;SDS011;56800;52.142;5.364;2023-04-25T00:45:27;15.50;;;3.33;;
69594;SDS011;56800;52.142;5.364;2023-04-25T00:47:56;20.00;;;3.50;;
69594;SDS011;56800;52.142;5.364;2023-04-25T00:50:23;21.53;;;3.53;;
69594;SDS011;56800;52.142;5.364;2023-04-25T00:52:50;14.88;;;2.67;;
69594;SDS011;56800;52.142;5.364;2023-04-25T00:55:17;18.77;;;3.25;;
69594;SDS011;56800;52.142;5.364;2023-04-25T00:57:45;23.45;;;3.65;;
69594;SDS011;56800;52.142;5.364;2023-04-25T01:00:13;20.92;;;3.65;;
69594;SDS011;56800;52.142;5.364;2023-04-25T01:02:41;16.67;;;3.20;;
69594;SDS011;56800;52.142;5.364;2023-04-25T01:05:11;17.13;;;3.38;;
69594;SDS011;56800;52.142;5.364;2023-04-25T01:07:38;15.70;;;3.20;;
69594;SDS011;56800;52.142;5.364;2023-04-25T01:10:05;16.05;;;3.03;;
69594;SDS011;56800;52.142;5.364;2023-04-25T01:12:33;16.13;;;3.50;;
69594;SDS011;56800;52.142;5.364;2023-04-25T01:15:00;16.23;;;2.83;;
69594;SDS011;56800;52.142;5.364;2023-04-25T01:17:26;16.92;;;3.42;;
69594;SDS011;56800;52.142;5.364;2023-04-25T01:19:55;20.70;;;3.35;;
69594;SDS011;56800;52.142;5.364;2023-04-25T01:22:22;19.40;;;2.83;;
69594;SDS011;56800;52.142;5.364;2023-04-25T01:24:48;20.55;;;3.25;;
69594;SDS011;56800;52.142;5.364;2023-04-25T01:27:15;15.33;;;3.33;;
69594;SDS011;56800;52.142;5.364;2023-04-25T01:29:42;19.27;;;3.33;;
69594;SDS011;56800;52.142;5.364;2023-04-25T01:32:09;17.42;;;3.38;;
69594;SDS011;56800;52.142;5.364;2023-04-25T01:34:36;18.48;;;3.30;;
69594;SDS011;56800;52.142;5.364;2023-04-25T01:37:03;28.80;;;3.58;;
69594;SDS011;56800;52.142;5.364;2023-04-25T01:39:30;17.67;;;2.60;;
69594;SDS011;56800;52.142;5.364;2023-04-25T01:41:58;21.15;;;3.33;;
69594;SDS011;56800;52.142;5.364;2023-04-25T01:44:25;21.95;;;3.35;;
69594;SDS011;56800;52.142;5.364;2023-04-25T01:46:52;11.85;;;2.63;;
69594;SDS011;56800;52.142;5.364;2023-04-25T01:49:20;11.48;;;3.17;;
69594;SDS011;56800;52.142;5.364;2023-04-25T01:51:46;16.83;;;2.63;;
69594;SDS011;56800;52.142;5.364;2023-04-25T01:54:13;12.60;;;2.88;;
69594;SDS011;56800;52.142;5.364;2023-04-25T01:56:40;20.08;;;3.20;;
69594;SDS011;56800;52.142;5.364;2023-04-25T01:59:06;14.73;;;2.70;;
69594;SDS011;56800;52.142;5.364;2023-04-25T02:01:33;18.63;;;2.60;;
69594;SDS011;56800;52.142;5.364;2023-04-25T02:04:00;16.67;;;3.30;;
69594;SDS011;56800;52.142;5.364;2023-04-25T02:06:27;21.50;;;3.90;;
69594;SDS011;56800;52.142;5.364;2023-04-25T02:08:54;13.65;;;3.00;;
69594;SDS011;56800;52.142;5.364;2023-04-25T02:11:20;18.05;;;3.78;;
69594;SDS011;56800;52.142;5.364;2023-04-25T02:13:47;19.17;;;3.17;;
69594;SDS011;56800;52.142;5.364;2023-04-25T02:16:14;16.30;;;2.53;;
69594;SDS011;56800;52.142;5.364;2023-04-25T02:18:41;20.15;;;2.92;;
69594;SDS011;56800;52.142;5.364;2023-04-25T02:21:07;18.40;;;3.70;;
69594;SDS011;56800;52.142;5.364;2023-04-25T02:23:34;16.38;;;2.95;;
69594;SDS011;56800;52.142;5.364;2023-04-25T02:26:01;17.30;;;3.28;;
69594;SDS011;56800;52.142;5.364;2023-04-25T02:28:28;15.77;;;3.53;;
69594;SDS011;56800;52.142;5.364;2023-04-25T02:30:55;13.50;;;3.63;;
69594;SDS011;56800;52.142;5.364;2023-04-25T02:33:21;19.42;;;2.90;;
69594;SDS011;56800;52.142;5.364;2023-04-25T02:35:48;14.43;;;2.67;;
69594;SDS011;56800;52.142;5.364;2023-04-25T02:38:15;21.38;;;3.15;;
69594;SDS011;56800;52.142;5.364;2023-04-25T02:40:41;11.70;;;3.57;;
69594;SDS011;56800;52.142;5.364;2023-04-25T02:43:08;10.52;;;2.83;;
69594;SDS011;56800;52.142;5.364;2023-04-25T02:45:35;20.70;;;3.10;;
69594;SDS011;56800;52.142;5.364;2023-04-25T02:48:02;15.15;;;3.03;;
69594;SDS011;56800;52.142;5.364;2023-04-25T02:50:29;19.05;;;3.25;;
69594;SDS011;56800;52.142;5.364;2023-04-25T02:52:56;15.77;;;3.10;;
69594;SDS011;56800;52.142;5.364;2023-04-25T02:55:23;13.50;;;2.90;;
69594;SDS011;56800;52.142;5.364;2023-04-25T02:57:53;18.88;;;3.55;;
69594;SDS011;56800;52.142;5.364;2023-04-25T03:00:21;17.23;;;3.10;;
69594;SDS011;56800;52.142;5.364;2023-04-25T03:02:48;15.90;;;2.95;;
69594;SDS011;56800;52.142;5.364;2023-04-25T03:05:15;22.70;;;3.63;;
69594;SDS011;56800;52.142;5.364;2023-04-25T03:07:42;15.32;;;3.55;;
69594;SDS011;56800;52.142;5.364;2023-04-25T03:10:10;12.68;;;3.28;;
69594;SDS011;56800;52.142;5.364;2023-04-25T03:12:36;18.08;;;3.17;;
69594;SDS011;56800;52.142;5.364;2023-04-25T03:15:03;13.40;;;3.38;;
69594;SDS011;56800;52.142;5.364;2023-04-25T03:17:30;18.87;;;2.87;;
69594;SDS011;56800;52.142;5.364;2023-04-25T03:19:57;17.92;;;3.28;;
69594;SDS011;56800;52.142;5.364;2023-04-25T03:22:24;17.48;;;3.38;;
69594;SDS011;56800;52.142;5.364;2023-04-25T03:24:50;19.85;;;3.53;;
69594;SDS011;56800;52.142;5.364;2023-04-25T03:27:17;16.23;;;3.08;;
69594;SDS011;56800;52.142;5.364;2023-04-25T03:29:44;17.10;;;2.87;;
69594;SDS011;56800;52.142;5.364;2023-04-25T03:32:10;16.67;;;3.17;;
69594;SDS011;56800;52.142;5.364;2023-04-25T03:34:37;16.90;;;3.60;;
69594;SDS011;56800;52.142;5.364;2023-04-25T03:37:04;16.83;;;3.78;;
69594;SDS011;56800;52.142;5.364;2023-04-25T03:39:31;19.60;;;3.00;;
69594;SDS011;56800;52.142;5.364;2023-04-25T03:41:57;14.10;;;2.40;;
69594;SDS011;56800;52.142;5.364;2023-04-25T03:44:24;14.52;;;3.30;;
69594;SDS011;56800;52.142;5.364;2023-04-25T03:46:51;12.57;;;3.20;;
69594;SDS011;56800;52.142;5.364;2023-04-25T03:49:17;16.52;;;3.42;;
69594;SDS011;56800;52.142;5.364;2023-04-25T03:51:44;12.23;;;2.92;;
69594;SDS011;56800;52.142;5.364;2023-04-25T03:54:11;17.63;;;3.07;;
69594;SDS011;56800;52.142;5.364;2023-04-25T03:56:38;13.15;;;2.83;;
69594;SDS011;56800;52.142;5.364;2023-04-25T03:59:04;22.92;;;2.97;;
69594;SDS011;56800;52.142;5.364;2023-04-25T04:01:31;9.75;;;1.98;;
69594;SDS011;56800;52.142;5.364;2023-04-25T04:03:58;16.58;;;3.00;;
69594;SDS011;56800;52.142;5.364;2023-04-25T04:06:25;11.87;;;3.10;;
69594;SDS011;56800;52.142;5.364;2023-04-25T04:08:51;14.50;;;2.88;;
69594;SDS011;56800;52.142;5.364;2023-04-25T04:11:18;14.88;;;3.83;;
69594;SDS011;56800;52.142;5.364;2023-04-25T04:13:46;15.15;;;2.53;;
69594;SDS011;56800;52.142;5.364;2023-04-25T04:16:13;11.98;;;2.40;;
69594;SDS011;56800;52.142;5.364;2023-04-25T04:18:40;16.13;;;2.73;;
69594;SDS011;56800;52.142;5.364;2023-04-25T04:21:07;15.48;;;2.40;;
69594;SDS011;56800;52.142;5.364;2023-04-25T04:23:33;15.07;;;2.40;;
69594;SDS011;56800;52.142;5.364;2023-04-25T04:26:03;14.00;;;2.10;;
69594;SDS011;56800;52.142;5.364;2023-04-25T04:28:30;12.65;;;2.00;;
69594;SDS011;56800;52.142;5.364;2023-04-25T04:30:56;10.23;;;1.73;;
69594;SDS011;56800;52.142;5.364;2023-04-25T04:33:23;11.85;;;2.15;;
69594;SDS011;56800;52.142;5.364;2023-04-25T04:35:50;13.20;;;2.25;;
69594;SDS011;56800;52.142;5.364;2023-04-25T04:38:19;12.38;;;2.22;;
69594;SDS011;56800;52.142;5.364;2023-04-25T04:40:47;11.43;;;2.25;;
69594;SDS011;56800;52.142;5.364;2023-04-25T04:43:14;17.00;;;2.17;;
69594;SDS011;56800;52.142;5.364;2023-04-25T04:45:43;10.27;;;2.00;;
69594;SDS011;56800;52.142;5.364;2023-04-25T04:48:10;7.95;;;2.05;;
69594;SDS011;56800;52.142;5.364;2023-04-25T04:50:40;13.75;;;1.92;;
69594;SDS011;56800;52.142;5.364;2023-04-25T04:53:08;8.35;;;2.00;;
69594;SDS011;56800;52.142;5.364;2023-04-25T04:55:35;11.20;;;2.23;;
69594;SDS011;56800;52.142;5.364;2023-04-25T04:58:02;11.93;;;2.00;;
69594;SDS011;56800;52.142;5.364;2023-04-25T05:00:28;8.95;;;2.20;;
69594;SDS011;56800;52.142;5.364;2023-04-25T05:02:56;9.60;;;2.42;;
69594;SDS011;56800;52.142;5.364;2023-04-25T05:05:23;10.30;;;2.20;;
69594;SDS011;56800;52.142;5.364;2023-04-25T05:07:50;17.10;;;1.90;;
69594;SDS011;56800;52.142;5.364;2023-04-25T05:10:18;8.60;;;2.00;;
69594;SDS011;56800;52.142;5.364;2023-04-25T05:12:45;12.20;;;2.30;;
69594;SDS011;56800;52.142;5.364;2023-04-25T05:15:13;13.38;;;1.77;;
69594;SDS011;56800;52.142;5.364;2023-04-25T05:17:40;12.82;;;1.85;;
69594;SDS011;56800;52.142;5.364;2023-04-25T05:20:07;10.13;;;1.93;;
69594;SDS011;56800;52.142;5.364;2023-04-25T05:22:35;14.52;;;2.13;;
69594;SDS011;56800;52.142;5.364;2023-04-25T05:25:02;10.13;;;1.67;;
69594;SDS011;56800;52.142;5.364;2023-04-25T05:27:29;8.60;;;2.42;;
69594;SDS011;56800;52.142;5.364;2023-04-25T05:29:56;7.50;;;1.75;;
69594;SDS011;56800;52.142;5.364;2023-04-25T05:32:22;12.57;;;2.40;;
69594;SDS011;56800;52.142;5.364;2023-04-25T05:34:51;6.18;;;1.60;;
69594;SDS011;56800;52.142;5.364;2023-04-25T05:37:18;10.57;;;2.00;;
69594;SDS011;56800;52.142;5.364;2023-04-25T05:39:45;12.15;;;1.83;;
69594;SDS011;56800;52.142;5.364;2023-04-25T05:42:11;11.57;;;2.28;;
69594;SDS011;56800;52.142;5.364;2023-04-25T05:44:38;8.00;;;1.57;;
69594;SDS011;56800;52.142;5.364;2023-04-25T05:47:05;10.80;;;1.90;;
69594;SDS011;56800;52.142;5.364;2023-04-25T05:49:31;10.32;;;2.08;;
69594;SDS011;56800;52.142;5.364;2023-04-25T05:51:58;12.38;;;2.00;;
69594;SDS011;56800;52.142;5.364;2023-04-25T05:54:25;13.95;;;2.05;;
69594;SDS011;56800;52.142;5.364;2023-04-25T05:56:51;5.90;;;1.60;;
69594;SDS011;56800;52.142;5.364;2023-04-25T05:59:18;9.70;;;2.00;;
69594;SDS011;56800;52.142;5.364;2023-04-25T06:01:45;5.68;;;1.60;;
69594;SDS011;56800;52.142;5.364;2023-04-25T06:04:13;11.00;;;1.77;;
69594;SDS011;56800;52.142;5.364;2023-04-25T06:06:40;9.57;;;2.22;;
69594;SDS011;56800;52.142;5.364;2023-04-25T06:09:06;13.80;;;2.20;;
69594;SDS011;56800;52.142;5.364;2023-04-25T06:11:33;9.77;;;1.80;;
69594;SDS011;56800;52.142;5.364;2023-04-25T06:14:00;9.20;;;1.90;;
69594;SDS011;56800;52.142;5.364;2023-04-25T06:16:26;6.43;;;1.77;;
69594;SDS011;56800;52.142;5.364;2023-04-25T06:18:53;11.73;;;2.50;;
69594;SDS011;56800;52.142;5.364;2023-04-25T06:21:20;8.10;;;1.53;;
69594;SDS011;56800;52.142;5.364;2023-04-25T06:23:47;11.27;;;1.92;;
69594;SDS011;56800;52.142;5.364;2023-04-25T06:26:14;11.70;;;1.75;;
69594;SDS011;56800;52.142;5.364;2023-04-25T06:28:41;15.13;;;1.85;;
69594;SDS011;56800;52.142;5.364;2023-04-25T06:31:08;10.20;;;1.65;;
69594;SDS011;56800;52.142;5.364;2023-04-25T06:33:34;8.43;;;1.77;;
69594;SDS011;56800;52.142;5.364;2023-04-25T06:36:01;8.43;;;1.60;;
69594;SDS011;56800;52.142;5.364;2023-04-25T06:38:27;8.85;;;1.70;;
69594;SDS011;56800;52.142;5.364;2023-04-25T06:40:54;11.50;;;1.60;;
69594;SDS011;56800;52.142;5.364;2023-04-25T06:43:21;15.45;;;1.77;;
69594;SDS011;56800;52.142;5.364;2023-04-25T06:45:47;9.87;;;1.80;;
69594;SDS011;56800;52.142;5.364;2023-04-25T06:48:14;10.27;;;1.92;;
69594;SDS011;56800;52.142;5.364;2023-04-25T06:50:41;12.45;;;1.90;;
69594;SDS011;56800;52.142;5.364;2023-04-25T06:53:08;10.35;;;1.77;;
69594;SDS011;56800;52.142;5.364;2023-04-25T06:55:34;11.52;;;1.92;;
69594;SDS011;56800;52.142;5.364;2023-04-25T06:58:01;7.03;;;1.73;;
69594;SDS011;56800;52.142;5.364;2023-04-25T07:00:29;9.13;;;1.50;;
69594;SDS011;56800;52.142;5.364;2023-04-25T07:02:56;8.05;;;1.67;;
69594;SDS011;56800;52.142;5.364;2023-04-25T07:05:23;10.23;;;1.42;;
69594;SDS011;56800;52.142;5.364;2023-04-25T07:07:50;17.35;;;1.90;;
69594;SDS011;56800;52.142;5.364;2023-04-25T07:10:17;7.90;;;1.90;;
69594;SDS011;56800;52.142;5.364;2023-04-25T07:12:43;10.55;;;1.75;;
69594;SDS011;56800;52.142;5.364;2023-04-25T07:15:10;8.15;;;1.60;;
69594;SDS011;56800;52.142;5.364;2023-04-25T07:17:37;7.85;;;1.38;;
69594;SDS011;56800;52.142;5.364;2023-04-25T07:20:04;8.73;;;1.75;;
69594;SDS011;56800;52.142;5.364;2023-04-25T07:22:32;8.73;;;1.63;;
69594;SDS011;56800;52.142;5.364;2023-04-25T07:24:59;9.35;;;1.80;;
69594;SDS011;56800;52.142;5.364;2023-04-25T07:27:25;8.07;;;2.00;;
69594;SDS011;56800;52.142;5.364;2023-04-25T07:29:52;10.25;;;1.30;;
69594;SDS011;56800;52.142;5.364;2023-04-25T07:32:19;12.30;;;1.70;;
69594;SDS011;56800;52.142;5.364;2023-04-25T07:34:46;11.63;;;1.73;;
69594;SDS011;56800;52.142;5.364;2023-04-25T07:37:13;13.88;;;1.67;;
69594;SDS011;56800;52.142;5.364;2023-04-25T07:39:40;10.75;;;1.67;;
69594;SDS011;56800;52.142;5.364;2023-04-25T07:42:07;8.65;;;1.88;;
69594;SDS011;56800;52.142;5.364;2023-04-25T07:44:34;15.70;;;1.90;;
69594;SDS011;56800;52.142;5.364;2023-04-25T07:47:08;9.90;;;1.53;;
69594;SDS011;56800;52.142;5.364;2023-04-25T07:49:36;12.75;;;2.53;;
69594;SDS011;56800;52.142;5.364;2023-04-25T07:52:03;12.48;;;1.58;;
69594;SDS011;56800;52.142;5.364;2023-04-25T07:54:32;10.50;;;1.30;;
69594;SDS011;56800;52.142;5.364;2023-04-25T07:56:58;13.40;;;2.00;;
69594;SDS011;56800;52.142;5.364;2023-04-25T07:59:25;10.70;;;1.43;;
69594;SDS011;56800;52.142;5.364;2023-04-25T08:01:55;9.02;;;1.30;;
69594;SDS011;56800;52.142;5.364;2023-04-25T08:04:23;13.27;;;1.50;;
69594;SDS011;56800;52.142;5.364;2023-04-25T08:06:51;8.02;;;1.60;;
69594;SDS011;56800;52.142;5.364;2023-04-25T08:09:19;9.35;;;1.70;;
69594;SDS011;56800;52.142;5.364;2023-04-25T08:11:46;8.80;;;1.90;;
69594;SDS011;56800;52.142;5.364;2023-04-25T08:14:13;10.82;;;1.92;;
69594;SDS011;56800;52.142;5.364;2023-04-25T08:16:40;8.70;;;2.25;;
69594;SDS011;56800;52.142;5.364;2023-04-25T08:19:06;8.38;;;1.50;;
69594;SDS011;56800;52.142;5.364;2023-04-25T08:21:33;6.22;;;1.50;;
69594;SDS011;56800;52.142;5.364;2023-04-25T08:24:00;11.33;;;1.30;;
69594;SDS011;56800;52.142;5.364;2023-04-25T08:26:29;7.97;;;1.15;;
69594;SDS011;56800;52.142;5.364;2023-04-25T08:28:56;9.68;;;2.05;;
69594;SDS011;56800;52.142;5.364;2023-04-25T08:31:22;6.45;;;1.30;;
69594;SDS011;56800;52.142;5.364;2023-04-25T08:33:49;5.43;;;1.08;;
69594;SDS011;56800;52.142;5.364;2023-04-25T08:36:17;6.50;;;1.27;;
69594;SDS011;56800;52.142;5.364;2023-04-25T08:39:03;6.13;;;1.33;;
69594;SDS011;56800;52.142;5.364;2023-04-25T08:41:30;9.90;;;1.10;;
69594;SDS011;56800;52.142;5.364;2023-04-25T08:43:57;6.60;;;1.10;;
69594;SDS011;56800;52.142;5.364;2023-04-25T08:46:26;6.68;;;1.52;;
69594;SDS011;56800;52.142;5.364;2023-04-25T08:48:53;8.00;;;1.40;;
69594;SDS011;56800;52.142;5.364;2023-04-25T08:51:31;8.63;;;1.25;;
69594;SDS011;56800;52.142;5.364;2023-04-25T08:54:04;7.95;;;1.30;;
69594;SDS011;56800;52.142;5.364;2023-04-25T08:56:56;7.13;;;1.40;;
69594;SDS011;56800;52.142;5.364;2023-04-25T08:59:24;6.90;;;1.35;;
69594;SDS011;56800;52.142;5.364;2023-04-25T09:01:50;9.30;;;1.17;;
69594;SDS011;56800;52.142;5.364;2023-04-25T09:04:18;10.85;;;1.58;;
69594;SDS011;56800;52.142;5.364;2023-04-25T09:06:47;7.25;;;1.75;;
69594;SDS011;56800;52.142;5.364;2023-04-25T09:09:14;11.00;;;1.70;;
69594;SDS011;56800;52.142;5.364;2023-04-25T09:11:41;10.60;;;1.25;;
69594;SDS011;56800;52.142;5.364;2023-04-25T09:14:14;7.57;;;1.73;;
69594;SDS011;56800;52.142;5.364;2023-04-25T09:22:06;5.53;;;1.10;;
69594;SDS011;56800;52.142;5.364;2023-04-25T09:24:43;7.13;;;1.63;;
69594;SDS011;56800;52.142;5.364;2023-04-25T09:27:13;8.77;;;1.67;;
69594;SDS011;56800;52.142;5.364;2023-04-25T09:29:45;7.40;;;1.30;;
69594;SDS011;56800;52.142;5.364;2023-04-25T09:34:46;6.53;;;1.42;;
69594;SDS011;56800;52.142;5.364;2023-04-25T09:37:22;7.97;;;1.35;;
69594;SDS011;56800;52.142;5.364;2023-04-25T09:39:59;8.60;;;1.30;;
69594;SDS011;56800;52.142;5.364;2023-04-25T09:42:31;7.88;;;1.60;;
69594;SDS011;56800;52.142;5.364;2023-04-25T09:45:01;7.70;;;1.60;;
69594;SDS011;56800;52.142;5.364;2023-04-25T09:47:29;7.38;;;1.50;;
69594;SDS011;56800;52.142;5.364;2023-04-25T09:49:57;7.75;;;1.45;;
69594;SDS011;56800;52.142;5.364;2023-04-25T09:52:24;6.97;;;1.30;;
69594;SDS011;56800;52.142;5.364;2023-04-25T09:54:51;6.75;;;1.30;;
69594;SDS011;56800;52.142;5.364;2023-04-25T09:57:22;8.13;;;1.70;;
69594;SDS011;56800;52.142;5.364;2023-04-25T09:59:51;7.53;;;1.60;;
69594;SDS011;56800;52.142;5.364;2023-04-25T10:02:20;5.80;;;1.55;;
69594;SDS011;56800;52.142;5.364;2023-04-25T10:04:52;6.13;;;1.40;;
69594;SDS011;56800;52.142;5.364;2023-04-25T10:07:22;5.22;;;1.20;;
69594;SDS011;56800;52.142;5.364;2023-04-25T10:09:58;7.35;;;1.20;;
69594;SDS011;56800;52.142;5.364;2023-04-25T10:12:27;6.65;;;1.30;;
69594;SDS011;56800;52.142;5.364;2023-04-25T10:14:54;6.20;;;1.10;;
69594;SDS011;56800;52.142;5.364;2023-04-25T10:17:21;5.13;;;1.20;;
69594;SDS011;56800;52.142;5.364;2023-04-25T10:19:49;8.93;;;1.40;;
69594;SDS011;56800;52.142;5.364;2023-04-25T10:22:18;8.63;;;1.75;;
69594;SDS011;56800;52.142;5.364;2023-04-25T10:24:52;5.70;;;1.25;;
69594;SDS011;56800;52.142;5.364;2023-04-25T10:27:18;4.82;;;1.42;;
69594;SDS011;56800;52.142;5.364;2023-04-25T10:29:45;5.30;;;1.20;;
69594;SDS011;56800;52.142;5.364;2023-04-25T10:32:42;7.30;;;1.35;;
69594;SDS011;56800;52.142;5.364;2023-04-25T10:40:39;7.15;;;1.30;;
69594;SDS011;56800;52.142;5.364;2023-04-25T10:46:01;9.23;;;1.40;;
69594;SDS011;56800;52.142;5.364;2023-04-25T10:48:29;4.25;;;1.50;;
69594;SDS011;56800;52.142;5.364;2023-04-25T10:51:09;5.15;;;1.30;;
69594;SDS011;56800;52.142;5.364;2023-04-25T10:53:36;5.57;;;1.38;;
69594;SDS011;56800;52.142;5.364;2023-04-25T10:56:37;8.13;;;1.30;;
69594;SDS011;56800;52.142;5.364;2023-04-25T10:59:06;5.47;;;1.50;;
69594;SDS011;56800;52.142;5.364;2023-04-25T11:04:18;8.27;;;1.30;;
69594;SDS011;56800;52.142;5.364;2023-04-25T11:09:32;4.57;;;1.20;;
69594;SDS011;56800;52.142;5.364;2023-04-25T11:12:00;7.03;;;1.33;;
69594;SDS011;56800;52.142;5.364;2023-04-25T11:14:27;8.45;;;2.33;;
69594;SDS011;56800;52.142;5.364;2023-04-25T11:16:54;6.90;;;1.50;;
69594;SDS011;56800;52.142;5.364;2023-04-25T11:19:26;7.68;;;1.33;;
69594;SDS011;56800;52.142;5.364;2023-04-25T11:21:59;9.67;;;1.80;;
69594;SDS011;56800;52.142;5.364;2023-04-25T11:24:35;4.70;;;1.30;;
69594;SDS011;56800;52.142;5.364;2023-04-25T11:27:05;6.30;;;1.48;;
69594;SDS011;56800;52.142;5.364;2023-04-25T11:29:32;11.57;;;2.20;;
69594;SDS011;56800;52.142;5.364;2023-04-25T11:32:00;9.55;;;1.88;;
69594;SDS011;56800;52.142;5.364;2023-04-25T11:34:28;7.53;;;1.60;;
69594;SDS011;56800;52.142;5.364;2023-04-25T11:36:57;6.72;;;1.40;;
69594;SDS011;56800;52.142;5.364;2023-04-25T11:39:24;13.45;;;1.73;;
69594;SDS011;56800;52.142;5.364;2023-04-25T11:41:52;7.85;;;1.45;;
69594;SDS011;56800;52.142;5.364;2023-04-25T11:44:20;5.20;;;1.33;;
69594;SDS011;56800;52.142;5.364;2023-04-25T11:46:47;11.10;;;1.50;;
69594;SDS011;56800;52.142;5.364;2023-04-25T11:49:14;8.02;;;1.50;;
69594;SDS011;56800;52.142;5.364;2023-04-25T11:51:42;6.80;;;1.58;;
69594;SDS011;56800;52.142;5.364;2023-04-25T11:54:10;6.43;;;1.65;;
69594;SDS011;56800;52.142;5.364;2023-04-25T11:56:44;6.38;;;1.52;;
69594;SDS011;56800;52.142;5.364;2023-04-25T11:59:12;4.07;;;0.93;;
69594;SDS011;56800;52.142;5.364;2023-04-25T12:01:40;6.43;;;1.60;;
69594;SDS011;56800;52.142;5.364;2023-04-25T12:04:21;5.28;;;1.70;;
69594;SDS011;56800;52.142;5.364;2023-04-25T12:06:51;8.18;;;1.67;;
69594;SDS011;56800;52.142;5.364;2023-04-25T12:09:20;5.85;;;1.83;;
69594;SDS011;56800;52.142;5.364;2023-04-25T12:11:53;5.33;;;1.33;;
69594;SDS011;56800;52.142;5.364;2023-04-25T12:16:50;8.45;;;1.65;;
69594;SDS011;56800;52.142;5.364;2023-04-25T12:19:18;8.35;;;1.50;;
69594;SDS011;56800;52.142;5.364;2023-04-25T12:21:46;6.68;;;1.60;;
69594;SDS011;56800;52.142;5.364;2023-04-25T12:24:18;11.27;;;1.50;;
69594;SDS011;56800;52.142;5.364;2023-04-25T12:29:33;7.93;;;1.73;;
69594;SDS011;56800;52.142;5.364;2023-04-25T12:32:15;5.18;;;1.55;;
69594;SDS011;56800;52.142;5.364;2023-04-25T12:34:43;8.05;;;1.42;;
69594;SDS011;56800;52.142;5.364;2023-04-25T12:37:09;9.03;;;1.40;;
69594;SDS011;56800;52.142;5.364;2023-04-25T12:39:36;7.60;;;1.30;;
69594;SDS011;56800;52.142;5.364;2023-04-25T12:42:03;6.65;;;1.45;;
69594;SDS011;56800;52.142;5.364;2023-04-25T12:44:34;6.82;;;1.52;;
69594;SDS011;56800;52.142;5.364;2023-04-25T12:47:01;7.88;;;1.33;;
69594;SDS011;56800;52.142;5.364;2023-04-25T12:49:29;7.43;;;1.60;;
69594;SDS011;56800;52.142;5.364;2023-04-25T12:51:55;4.78;;;1.20;;
69594;SDS011;56800;52.142;5.364;2023-04-25T12:54:22;6.30;;;1.40;;
69594;SDS011;56800;52.142;5.364;2023-04-25T12:56:49;4.68;;;1.42;;
69594;SDS011;56800;52.142;5.364;2023-04-25T12:59:16;7.43;;;1.40;;
69594;SDS011;56800;52.142;5.364;2023-04-25T13:01:43;4.03;;;1.23;;
69594;SDS011;56800;52.142;5.364;2023-04-25T13:04:11;6.28;;;1.27;;
69594;SDS011;56800;52.142;5.364;2023-04-25T13:06:38;5.28;;;1.83;;
69594;SDS011;56800;52.142;5.364;2023-04-25T13:09:05;5.32;;;1.40;;
69594;SDS011;56800;52.142;5.364;2023-04-25T13:11:32;8.38;;;1.65;;
69594;SDS011;56800;52.142;5.364;2023-04-25T13:14:00;5.83;;;1.50;;
69594;SDS011;56800;52.142;5.364;2023-04-25T13:16:27;7.18;;;1.60;;
69594;SDS011;56800;52.142;5.364;2023-04-25T13:18:53;7.38;;;1.90;;
69594;SDS011;56800;52.142;5.364;2023-04-25T13:21:22;6.72;;;1.33;;
69594;SDS011;56800;52.142;5.364;2023-04-25T13:23:48;6.78;;;1.77;;
69594;SDS011;56800;52.142;5.364;2023-04-25T13:26:15;6.87;;;1.50;;
69594;SDS011;56800;52.142;5.364;2023-04-25T13:28:42;6.25;;;1.20;;
69594;SDS011;56800;52.142;5.364;2023-04-25T13:31:10;6.35;;;1.33;;
69594;SDS011;56800;52.142;5.364;2023-04-25T13:33:37;4.43;;;1.33;;
69594;SDS011;56800;52.142;5.364;2023-04-25T13:36:03;7.38;;;1.30;;
69594;SDS011;56800;52.142;5.364;2023-04-25T13:38:30;9.80;;;1.67;;
69594;SDS011;56800;52.142;5.364;2023-04-25T13:40:57;6.72;;;1.58;;
69594;SDS011;56800;52.142;5.364;2023-04-25T13:43:23;6.07;;;1.50;;
69594;SDS011;56800;52.142;5.364;2023-04-25T13:45:50;10.38;;;1.67;;
69594;SDS011;56800;52.142;5.364;2023-04-25T13:48:18;5.28;;;1.52;;
69594;SDS011;56800;52.142;5.364;2023-04-25T13:50:45;9.30;;;1.90;;
69594;SDS011;56800;52.142;5.364;2023-04-25T13:53:12;5.47;;;1.58;;
69594;SDS011;56800;52.142;5.364;2023-04-25T13:55:39;6.72;;;1.67;;
69594;SDS011;56800;52.142;5.364;2023-04-25T13:58:06;7.57;;;1.80;;
69594;SDS011;56800;52.142;5.364;2023-04-25T14:00:35;8.38;;;1.70;;
69594;SDS011;56800;52.142;5.364;2023-04-25T14:03:05;9.53;;;2.00;;
69594;SDS011;56800;52.142;5.364;2023-04-25T14:05:36;7.30;;;1.48;;
69594;SDS011;56800;52.142;5.364;2023-04-25T14:08:08;8.60;;;1.65;;
69594;SDS011;56800;52.142;5.364;2023-04-25T14:10:35;8.95;;;1.40;;
69594;SDS011;56800;52.142;5.364;2023-04-25T14:13:03;6.03;;;1.17;;
69594;SDS011;56800;52.142;5.364;2023-04-25T14:15:33;5.83;;;1.20;;
69594;SDS011;56800;52.142;5.364;2023-04-25T14:18:00;4.32;;;1.13;;
69594;SDS011;56800;52.142;5.364;2023-04-25T14:20:27;7.82;;;1.40;;
69594;SDS011;56800;52.142;5.364;2023-04-25T14:22:54;7.82;;;1.58;;
69594;SDS011;56800;52.142;5.364;2023-04-25T14:25:23;7.93;;;1.63;;
69594;SDS011;56800;52.142;5.364;2023-04-25T14:27:50;6.37;;;1.73;;
69594;SDS011;56800;52.142;5.364;2023-04-25T14:30:17;7.65;;;1.60;;
69594;SDS011;56800;52.142;5.364;2023-04-25T14:32:45;7.32;;;1.50;;
69594;SDS011;56800;52.142;5.364;2023-04-25T14:35:12;7.78;;;1.88;;
69594;SDS011;56800;52.142;5.364;2023-04-25T14:37:39;8.32;;;1.40;;
69594;SDS011;56800;52.142;5.364;2023-04-25T14:40:06;6.07;;;1.70;;
69594;SDS011;56800;52.142;5.364;2023-04-25T14:42:39;9.45;;;1.42;;
69594;SDS011;56800;52.142;5.364;2023-04-25T14:45:06;7.40;;;1.58;;
69594;SDS011;56800;52.142;5.364;2023-04-25T14:47:35;5.28;;;1.25;;
69594;SDS011;56800;52.142;5.364;2023-04-25T14:50:03;4.57;;;1.30;;
69594;SDS011;56800;52.142;5.364;2023-04-25T14:52:30;10.37;;;1.57;;
69594;SDS011;56800;52.142;5.364;2023-04-25T14:54:57;9.30;;;1.90;;
69594;SDS011;56800;52.142;5.364;2023-04-25T14:57:26;7.22;;;1.30;;
69594;SDS011;56800;52.142;5.364;2023-04-25T14:59:53;6.97;;;1.30;;
69594;SDS011;56800;52.142;5.364;2023-04-25T15:02:19;3.97;;;1.10;;
69594;SDS011;56800;52.142;5.364;2023-04-25T15:04:46;3.97;;;1.13;;
69594;SDS011;56800;52.142;5.364;2023-04-25T15:07:13;7.88;;;1.23;;
69594;SDS011;56800;52.142;5.364;2023-04-25T15:09:43;5.88;;;1.33;;
69594;SDS011;56800;52.142;5.364;2023-04-25T15:12:10;11.38;;;1.40;;